createdAt,value
2018-06-16T00:00:58.114Z,4.10
2018-06-16T00:02:04.708Z,3.70
2018-06-16T00:03:11.782Z,5.40
2018-06-16T00:04:19.012Z,3.70
2018-06-16T00:05:25.718Z,4.20
2018-06-16T00:06:32.340Z,3.80
2018-06-16T00:07:39.471Z,4.50
2018-06-16T00:08:46.602Z,3.60
2018-06-16T00:09:53.616Z,3.60
2018-06-16T00:11:00.627Z,4.70
2018-06-16T00:12:09.645Z,3.50
2018-06-16T00:13:14.742Z,4.50
2018-06-16T00:14:21.078Z,4.70
2018-06-16T00:15:27.986Z,4.10
2018-06-16T00:16:34.926Z,4.30
2018-06-16T00:17:41.947Z,6.00
2018-06-16T00:18:48.998Z,4.70
2018-06-16T00:19:55.971Z,4.30
2018-06-16T00:21:02.901Z,6.50
2018-06-16T00:22:09.778Z,3.40
2018-06-16T00:23:16.723Z,4.50
2018-06-16T00:24:23.726Z,4.80
2018-06-16T00:25:30.814Z,4.20
2018-06-16T00:26:37.807Z,5.30
2018-06-16T00:27:44.794Z,5.70
2018-06-16T00:28:51.823Z,4.00
2018-06-16T00:29:58.753Z,4.90
2018-06-16T00:31:05.879Z,4.40
2018-06-16T00:32:12.463Z,3.50
2018-06-16T00:33:19.583Z,4.30
2018-06-16T00:34:26.290Z,4.10
2018-06-16T00:35:33.341Z,5.40
2018-06-16T00:36:40.403Z,4.00
2018-06-16T00:37:47.283Z,4.30
2018-06-16T00:38:54.267Z,4.20
2018-06-16T00:40:01.219Z,4.60
2018-06-16T00:41:07.795Z,4.50
2018-06-16T00:42:14.766Z,4.30
2018-06-16T00:43:21.874Z,3.90
2018-06-16T00:44:28.842Z,4.70
2018-06-16T00:45:37.043Z,4.10
2018-06-16T00:46:42.949Z,4.60
2018-06-16T00:47:49.975Z,4.30
2018-06-16T00:48:56.918Z,4.20
2018-06-16T00:50:03.934Z,8.10
2018-06-16T00:51:10.747Z,5.10
2018-06-16T00:52:17.958Z,4.30
2018-06-16T00:53:24.467Z,4.30
2018-06-16T00:54:31.447Z,6.10
2018-06-16T00:55:38.346Z,4.50
2018-06-16T00:56:45.171Z,4.20
2018-06-16T00:57:52.320Z,4.10
2018-06-16T00:58:59.282Z,7.60
2018-06-16T01:00:06.150Z,4.00
2018-06-16T01:01:13.101Z,4.10
2018-06-16T01:02:20.028Z,3.70
2018-06-16T01:03:26.963Z,3.90
2018-06-16T01:04:33.866Z,6.40
2018-06-16T01:05:40.832Z,4.00
2018-06-16T01:06:47.799Z,4.70
2018-06-16T01:07:54.596Z,4.90
2018-06-16T01:09:01.549Z,5.40
2018-06-16T01:10:08.552Z,4.30
2018-06-16T01:11:15.296Z,4.20
2018-06-16T01:12:22.117Z,6.50
2018-06-16T01:13:29.036Z,8.40
2018-06-16T01:14:35.942Z,6.20
2018-06-16T01:15:42.962Z,5.50
2018-06-16T01:16:49.891Z,4.70
2018-06-16T01:17:56.811Z,4.90
2018-06-16T01:19:03.851Z,5.20
2018-06-16T01:20:10.752Z,4.30
2018-06-16T01:21:17.670Z,4.40
2018-06-16T01:22:24.644Z,4.50
2018-06-16T01:23:31.630Z,5.60
2018-06-16T01:24:38.575Z,4.10
2018-06-16T01:25:45.506Z,4.50
2018-06-16T01:26:52.385Z,5.00
2018-06-16T01:27:59.228Z,4.20
2018-06-16T01:29:06.142Z,4.80
2018-06-16T01:30:13.043Z,4.80
2018-06-16T01:31:19.976Z,3.90
2018-06-16T01:32:26.899Z,4.20
2018-06-16T01:33:33.965Z,6.50
2018-06-16T01:34:40.878Z,5.00
2018-06-16T01:35:47.858Z,5.40
2018-06-16T01:36:54.786Z,4.90
2018-06-16T01:38:01.706Z,4.10
2018-06-16T01:39:08.722Z,4.70
2018-06-16T01:40:15.762Z,4.10
2018-06-16T01:41:22.700Z,4.40
2018-06-16T01:42:29.706Z,5.60
2018-06-16T01:43:36.613Z,5.50
2018-06-16T01:44:43.565Z,4.50
2018-06-16T01:45:50.451Z,5.70
2018-06-16T01:46:57.387Z,4.30
2018-06-16T01:48:04.448Z,6.30
2018-06-16T01:49:11.226Z,3.90
2018-06-16T01:50:18.187Z,3.90
2018-06-16T01:51:25.085Z,6.70
2018-06-16T01:52:31.998Z,3.50
2018-06-16T01:53:38.975Z,5.20
2018-06-16T01:54:45.898Z,4.20
2018-06-16T01:55:52.811Z,5.20
2018-06-16T01:56:59.612Z,4.70
2018-06-16T01:58:06.581Z,3.80
2018-06-16T01:59:13.552Z,4.40
2018-06-16T02:00:20.607Z,3.70
2018-06-16T02:01:27.455Z,4.90
2018-06-16T02:02:34.326Z,3.50
2018-06-16T02:03:41.287Z,4.10
2018-06-16T02:04:48.215Z,4.10
2018-06-16T02:05:55.090Z,4.70
2018-06-16T02:07:02.036Z,4.30
2018-06-16T02:08:08.927Z,4.40
2018-06-16T02:09:15.894Z,3.90
2018-06-16T02:10:22.773Z,4.20
2018-06-16T02:11:29.692Z,4.20
2018-06-16T02:12:36.470Z,4.30
2018-06-16T02:13:43.334Z,5.70
2018-06-16T02:14:50.171Z,3.70
2018-06-16T02:15:57.147Z,3.50
2018-06-16T02:17:04.302Z,4.40
2018-06-16T02:18:10.786Z,5.40
2018-06-16T02:19:17.781Z,4.20
2018-06-16T02:20:24.542Z,4.80
2018-06-16T02:21:31.402Z,5.50
2018-06-16T02:22:38.407Z,3.80
2018-06-16T02:23:45.378Z,5.20
2018-06-16T02:24:52.287Z,3.90
2018-06-16T02:25:59.198Z,3.50
2018-06-16T02:27:06.133Z,4.20
2018-06-16T02:28:13.053Z,3.90
2018-06-16T02:29:20.009Z,4.60
2018-06-16T02:30:26.870Z,4.90
2018-06-16T02:31:33.669Z,6.00
2018-06-16T02:32:40.469Z,3.80
2018-06-16T02:33:47.250Z,5.80
2018-06-16T02:34:54.184Z,4.60
2018-06-16T02:36:00.897Z,3.70
2018-06-16T02:37:07.855Z,4.10
2018-06-16T02:38:14.737Z,5.00
2018-06-16T02:39:21.670Z,3.80
2018-06-16T02:40:28.486Z,4.90
2018-06-16T02:41:35.253Z,3.60
2018-06-16T02:42:42.257Z,4.20
2018-06-16T02:43:49.021Z,4.60
2018-06-16T02:44:56.169Z,4.20
2018-06-16T02:46:02.992Z,3.40
2018-06-16T02:47:09.842Z,3.40
2018-06-16T02:48:16.773Z,3.30
2018-06-16T02:49:23.683Z,6.90
2018-06-16T02:50:30.580Z,3.50
2018-06-16T02:51:37.424Z,3.80
2018-06-16T02:52:44.337Z,4.50
2018-06-16T02:53:51.250Z,5.00
2018-06-16T02:54:58.081Z,5.00
2018-06-16T02:56:04.983Z,5.90
2018-06-16T02:57:11.806Z,4.10
2018-06-16T02:58:18.615Z,4.80
2018-06-16T02:59:25.651Z,4.80
2018-06-16T03:00:32.444Z,3.80
2018-06-16T03:01:39.154Z,3.50
2018-06-16T03:02:45.888Z,4.80
2018-06-16T03:03:52.809Z,5.20
2018-06-16T03:04:59.537Z,4.00
2018-06-16T03:06:06.306Z,3.30
2018-06-16T03:07:13.094Z,3.00
2018-06-16T03:08:19.874Z,3.30
2018-06-16T03:09:26.814Z,4.70
2018-06-16T03:10:33.696Z,4.10
2018-06-16T03:11:40.426Z,3.90
2018-06-16T03:12:47.133Z,4.10
2018-06-16T03:13:53.841Z,4.70
2018-06-16T03:15:00.560Z,5.80
2018-06-16T03:16:07.277Z,5.50
2018-06-16T03:17:14.106Z,5.30
2018-06-16T03:18:20.907Z,4.20
2018-06-16T03:19:27.782Z,4.70
2018-06-16T03:20:34.534Z,4.20
2018-06-16T03:21:41.254Z,3.70
2018-06-16T03:22:47.958Z,3.30
2018-06-16T03:23:54.794Z,13.80
2018-06-16T03:25:01.559Z,3.70
2018-06-16T03:26:08.461Z,3.60
2018-06-16T03:27:15.234Z,3.40
2018-06-16T03:28:22.111Z,6.20
2018-06-16T03:29:28.893Z,4.50
2018-06-16T03:30:35.826Z,4.50
2018-06-16T03:31:42.726Z,3.60
2018-06-16T03:32:49.648Z,4.10
2018-06-16T03:33:56.574Z,3.60
2018-06-16T03:35:03.494Z,3.90
2018-06-16T03:36:10.378Z,3.60
2018-06-16T03:37:17.165Z,3.90
2018-06-16T03:38:23.944Z,3.70
2018-06-16T03:39:30.671Z,3.60
2018-06-16T03:40:37.539Z,4.40
2018-06-16T03:41:44.291Z,3.90
2018-06-16T03:42:51.161Z,6.70
2018-06-16T03:43:58.063Z,4.60
2018-06-16T03:45:04.791Z,4.20
2018-06-16T03:46:11.711Z,4.60
2018-06-16T03:47:18.493Z,4.90
2018-06-16T03:48:25.301Z,5.00
2018-06-16T03:49:32.493Z,8.50
2018-06-16T03:50:39.251Z,4.50
2018-06-16T03:51:46.220Z,4.40
2018-06-16T03:52:53.076Z,4.60
2018-06-16T03:53:59.894Z,5.20
2018-06-16T03:55:06.870Z,3.90
2018-06-16T03:56:13.771Z,4.20
2018-06-16T03:57:20.666Z,5.30
2018-06-16T03:58:27.603Z,5.10
2018-06-16T03:59:34.603Z,4.60
2018-06-16T04:00:41.550Z,4.60
2018-06-16T04:01:48.940Z,4.30
2018-06-16T04:02:55.798Z,3.90
2018-06-16T04:04:02.767Z,3.80
2018-06-16T04:05:09.639Z,3.60
2018-06-16T04:06:16.468Z,5.50
2018-06-16T04:07:23.386Z,4.20
2018-06-16T04:08:30.176Z,5.40
2018-06-16T04:09:37.027Z,7.40
2018-06-16T04:10:43.961Z,7.60
2018-06-16T04:11:50.834Z,4.00
2018-06-16T04:12:57.837Z,4.50
2018-06-16T04:14:04.791Z,4.40
2018-06-16T04:15:11.890Z,6.70
2018-06-16T04:16:18.726Z,4.20
2018-06-16T04:17:25.644Z,4.10
2018-06-16T04:18:32.668Z,4.00
2018-06-16T04:19:39.626Z,4.70
2018-06-16T04:20:46.531Z,4.30
2018-06-16T04:21:53.318Z,4.50
2018-06-16T04:23:00.047Z,7.90
2018-06-16T04:24:06.934Z,4.30
2018-06-16T04:25:13.865Z,6.60
2018-06-16T04:26:20.762Z,3.90
2018-06-16T04:27:27.721Z,4.50
2018-06-16T04:28:34.945Z,4.50
2018-06-16T04:29:41.360Z,5.10
2018-06-16T04:30:48.270Z,4.30
2018-06-16T04:31:55.212Z,4.80
2018-06-16T04:33:01.855Z,3.90
2018-06-16T04:34:08.645Z,4.50
2018-06-16T04:35:15.530Z,4.80
2018-06-16T04:36:22.444Z,4.10
2018-06-16T04:37:29.297Z,3.80
2018-06-16T04:38:36.118Z,4.60
2018-06-16T04:39:42.834Z,5.30
2018-06-16T04:40:50.063Z,4.80
2018-06-16T04:41:56.478Z,4.50
2018-06-16T04:43:03.229Z,4.20
2018-06-16T04:44:10.182Z,5.40
2018-06-16T04:45:16.873Z,4.50
2018-06-16T04:46:23.800Z,4.30
2018-06-16T04:47:30.621Z,4.80
2018-06-16T04:48:37.677Z,7.00
2018-06-16T04:49:44.443Z,5.70
2018-06-16T04:50:51.367Z,12.40
2018-06-16T04:51:58.182Z,6.10
2018-06-16T04:53:05.085Z,4.40
2018-06-16T04:54:11.856Z,5.30
2018-06-16T04:55:18.641Z,4.50
2018-06-16T04:56:25.330Z,4.50
2018-06-16T04:57:32.131Z,4.10
2018-06-16T04:58:39.066Z,4.40
2018-06-16T04:59:45.968Z,4.30
2018-06-16T05:00:52.982Z,3.80
2018-06-16T05:01:59.738Z,4.30
2018-06-16T05:03:06.591Z,4.30
2018-06-16T05:04:13.277Z,5.10
2018-06-16T05:05:20.334Z,4.20
2018-06-16T05:06:27.141Z,4.50
2018-06-16T05:07:33.835Z,4.80
2018-06-16T05:08:40.656Z,4.20
2018-06-16T05:09:47.739Z,4.60
2018-06-16T05:10:54.775Z,4.60
2018-06-16T05:12:01.766Z,4.40
2018-06-16T05:13:08.725Z,4.10
2018-06-16T05:14:15.633Z,6.40
2018-06-16T05:15:22.346Z,6.90
2018-06-16T05:16:29.158Z,4.90
2018-06-16T05:17:35.971Z,4.80
2018-06-16T05:18:42.886Z,7.00
2018-06-16T05:19:50.001Z,5.00
2018-06-16T05:20:56.718Z,5.50
2018-06-16T05:22:03.663Z,5.90
2018-06-16T05:23:10.765Z,6.00
2018-06-16T05:24:17.648Z,4.50
2018-06-16T05:25:24.645Z,4.50
2018-06-16T05:26:31.295Z,4.80
2018-06-16T05:27:38.379Z,4.90
2018-06-16T05:28:45.495Z,4.60
2018-06-16T05:29:52.344Z,4.30
2018-06-16T05:30:59.485Z,4.10
2018-06-16T05:32:06.212Z,4.90
2018-06-16T05:33:13.585Z,4.40
2018-06-16T05:34:20.119Z,4.00
2018-06-16T05:35:27.073Z,3.50
2018-06-16T05:36:33.879Z,4.10
2018-06-16T05:37:40.951Z,5.00
2018-06-16T05:38:47.647Z,3.80
2018-06-16T05:39:54.417Z,4.20
2018-06-16T05:41:01.356Z,4.10
2018-06-16T05:42:08.126Z,4.30
2018-06-16T05:43:15.232Z,4.80
2018-06-16T05:44:22.038Z,7.20
2018-06-16T05:45:29.120Z,6.70
2018-06-16T05:46:35.898Z,4.80
2018-06-16T05:47:42.855Z,5.10
2018-06-16T05:48:49.766Z,4.90
2018-06-16T05:49:56.615Z,4.20
2018-06-16T05:51:03.608Z,5.00
2018-06-16T05:52:10.447Z,4.50
2018-06-16T05:53:17.373Z,4.70
2018-06-16T05:54:24.304Z,5.90
2018-06-16T05:55:31.330Z,5.20
2018-06-16T05:56:38.235Z,6.10
2018-06-16T05:57:45.273Z,5.70
2018-06-16T05:58:53.772Z,6.80
2018-06-16T05:59:59.144Z,5.20
2018-06-16T06:01:06.031Z,5.60
2018-06-16T06:02:12.979Z,4.80
2018-06-16T06:03:20.044Z,5.10
2018-06-16T06:04:27.077Z,6.50
2018-06-16T06:05:33.873Z,6.00
2018-06-16T06:06:40.892Z,5.70
2018-06-16T06:07:48.924Z,5.50
2018-06-16T06:08:54.837Z,5.40
2018-06-16T06:10:01.850Z,5.70
2018-06-16T06:11:08.906Z,5.50
2018-06-16T06:12:15.843Z,6.00
2018-06-16T06:13:22.601Z,5.60
2018-06-16T06:14:29.544Z,5.60
2018-06-16T06:15:36.438Z,5.70
2018-06-16T06:16:43.342Z,4.80
2018-06-16T06:17:50.245Z,6.10
2018-06-16T06:18:57.204Z,5.30
2018-06-16T06:20:04.163Z,5.20
2018-06-16T06:21:10.984Z,6.30
2018-06-16T06:22:17.911Z,7.00
2018-06-16T06:23:24.761Z,8.80
2018-06-16T06:24:31.651Z,7.70
2018-06-16T06:25:38.593Z,7.20
2018-06-16T06:26:45.546Z,7.50
2018-06-16T06:27:52.560Z,10.00
2018-06-16T06:28:59.484Z,7.70
2018-06-16T06:30:06.439Z,8.20
2018-06-16T06:31:13.403Z,7.60
2018-06-16T06:32:20.228Z,7.50
2018-06-16T06:33:27.150Z,8.40
2018-06-16T06:34:33.955Z,8.00
2018-06-16T06:35:40.905Z,7.50
2018-06-16T06:36:47.942Z,8.60
2018-06-16T06:37:54.530Z,12.00
2018-06-16T06:39:01.505Z,7.90
2018-06-16T06:40:08.347Z,7.60
2018-06-16T06:41:15.399Z,8.70
2018-06-16T06:42:22.103Z,7.80
2018-06-16T06:43:28.903Z,7.80
2018-06-16T06:44:35.680Z,8.70
2018-06-16T06:45:42.365Z,11.00
2018-06-16T06:46:49.214Z,7.50
2018-06-16T06:47:55.899Z,8.10
2018-06-16T06:49:02.783Z,8.60
2018-06-16T06:50:09.666Z,10.20
2018-06-16T06:51:16.417Z,8.30
2018-06-16T06:52:23.139Z,8.40
2018-06-16T06:53:29.958Z,7.60
2018-06-16T06:54:36.774Z,8.80
2018-06-16T06:55:43.674Z,8.50
2018-06-16T06:56:50.460Z,8.90
2018-06-16T06:57:57.471Z,8.20
2018-06-16T06:59:04.248Z,7.10
2018-06-16T07:00:11.058Z,7.00
2018-06-16T07:01:18.196Z,7.80
2018-06-16T07:02:24.707Z,6.90
2018-06-16T07:03:31.583Z,6.90
2018-06-16T07:04:38.494Z,9.80
2018-06-16T07:05:45.275Z,6.90
2018-06-16T07:06:52.296Z,9.60
2018-06-16T07:07:59.020Z,7.80
2018-06-16T07:09:05.784Z,8.30
2018-06-16T07:10:13.023Z,8.10
2018-06-16T07:11:19.971Z,11.20
2018-06-16T07:12:26.618Z,11.00
2018-06-16T07:13:33.878Z,12.00
2018-06-16T07:14:40.913Z,11.80
2018-06-16T07:15:48.041Z,9.50
2018-06-16T07:16:54.984Z,11.10
2018-06-16T07:18:01.883Z,10.20
2018-06-16T07:19:08.729Z,8.80
2018-06-16T07:20:15.510Z,9.90
2018-06-16T07:21:22.610Z,9.60
2018-06-16T07:22:29.715Z,8.60
2018-06-16T07:23:36.144Z,10.10
2018-06-16T07:24:43.050Z,11.70
2018-06-16T07:25:49.953Z,10.40
2018-06-16T07:26:56.767Z,13.20
2018-06-16T07:28:03.653Z,16.10
2018-06-16T07:29:10.697Z,8.80
2018-06-16T07:30:17.443Z,11.30
2018-06-16T07:31:24.214Z,11.70
2018-06-16T07:32:31.200Z,9.70
2018-06-16T07:33:37.918Z,11.80
2018-06-16T07:34:44.618Z,11.30
2018-06-16T07:35:51.410Z,9.90
2018-06-16T07:36:58.445Z,11.20
2018-06-16T07:38:05.374Z,12.10
2018-06-16T07:39:12.340Z,12.60
2018-06-16T07:40:19.289Z,10.40
2018-06-16T07:41:26.229Z,11.30
2018-06-16T07:42:33.038Z,11.90
2018-06-16T07:43:39.775Z,9.80
2018-06-16T07:44:46.487Z,12.80
2018-06-16T07:45:53.295Z,9.30
2018-06-16T07:47:00.035Z,10.40
2018-06-16T07:48:06.803Z,9.90
2018-06-16T07:49:13.599Z,12.60
2018-06-16T07:50:20.426Z,12.50
2018-06-16T07:51:27.194Z,13.90
2018-06-16T07:52:34.080Z,14.00
2018-06-16T07:53:40.775Z,14.50
2018-06-16T07:54:47.529Z,14.70
2018-06-16T07:55:54.254Z,8.70
2018-06-16T07:57:01.107Z,9.90
2018-06-16T07:58:07.906Z,12.20
2018-06-16T07:59:14.596Z,10.60
2018-06-16T08:00:21.536Z,12.80
2018-06-16T08:01:28.467Z,9.80
2018-06-16T08:02:35.283Z,9.70
2018-06-16T08:03:42.317Z,9.20
2018-06-16T08:04:49.290Z,13.50
2018-06-16T08:05:56.028Z,8.40
2018-06-16T08:07:02.742Z,9.60
2018-06-16T08:08:09.956Z,8.60
2018-06-16T08:09:16.506Z,10.50
2018-06-16T08:10:23.384Z,12.70
2018-06-16T08:11:30.342Z,10.10
2018-06-16T08:12:37.269Z,12.20
2018-06-16T08:13:44.091Z,9.10
2018-06-16T08:14:50.970Z,9.40
2018-06-16T08:15:57.957Z,8.70
2018-06-16T08:17:04.697Z,9.40
2018-06-16T08:18:11.393Z,8.90
2018-06-16T08:19:18.180Z,8.40
2018-06-16T08:20:24.865Z,9.60
2018-06-16T08:21:31.686Z,8.40
2018-06-16T08:22:38.432Z,8.50
2018-06-16T08:23:45.273Z,9.70
2018-06-16T08:24:52.098Z,8.40
2018-06-16T08:25:58.965Z,7.40
2018-06-16T08:27:05.832Z,6.70
2018-06-16T08:28:12.611Z,7.80
2018-06-16T08:29:19.428Z,7.60
2018-06-16T08:30:26.158Z,8.00
2018-06-16T08:31:32.993Z,7.80
2018-06-16T08:32:39.826Z,7.60
2018-06-16T08:33:47.496Z,8.30
2018-06-16T08:34:53.500Z,8.50
2018-06-16T08:36:00.458Z,7.80
2018-06-16T08:37:07.410Z,8.80
2018-06-16T08:38:14.221Z,8.10
2018-06-16T08:39:21.145Z,8.40
2018-06-16T08:40:27.957Z,8.60
2018-06-16T08:41:34.788Z,10.00
2018-06-16T08:42:41.581Z,9.10
2018-06-16T08:43:48.434Z,9.70
2018-06-16T08:44:55.218Z,8.20
2018-06-16T08:46:02.063Z,8.50
2018-06-16T08:47:09.118Z,8.00
2018-06-16T08:48:15.644Z,8.70
2018-06-16T08:49:22.414Z,8.60
2018-06-16T08:50:29.265Z,7.30
2018-06-16T08:51:36.070Z,9.70
2018-06-16T08:52:42.839Z,7.70
2018-06-16T08:53:49.733Z,7.30
2018-06-16T08:54:56.425Z,8.90
2018-06-16T08:56:03.211Z,8.20
2018-06-16T08:57:10.054Z,7.40
2018-06-16T08:58:16.911Z,8.00
2018-06-16T08:59:23.755Z,8.50
2018-06-16T09:00:30.613Z,8.50
2018-06-16T09:01:37.409Z,7.70
2018-06-16T09:02:44.331Z,7.20
2018-06-16T09:03:51.113Z,5.90
2018-06-16T09:04:57.831Z,4.80
2018-06-16T09:06:04.543Z,4.80
2018-06-16T09:07:11.315Z,4.90
2018-06-16T09:08:18.188Z,5.50
2018-06-16T09:09:25.118Z,4.70
2018-06-16T09:10:31.908Z,5.20
2018-06-16T09:11:38.637Z,4.70
2018-06-16T09:12:45.366Z,5.20
2018-06-16T09:13:52.222Z,5.70
2018-06-16T09:14:59.048Z,4.70
2018-06-16T09:16:05.742Z,4.60
2018-06-16T09:17:12.639Z,4.80
2018-06-16T09:18:19.388Z,4.60
2018-06-16T09:19:26.111Z,4.70
2018-06-16T09:20:32.840Z,4.30
2018-06-16T09:21:39.753Z,4.70
2018-06-16T09:22:46.482Z,5.60
2018-06-16T09:23:53.616Z,4.90
2018-06-16T09:25:00.586Z,4.80
2018-06-16T09:26:07.597Z,5.10
2018-06-16T09:27:14.469Z,4.60
2018-06-16T09:28:21.473Z,7.20
2018-06-16T09:29:28.226Z,4.80
2018-06-16T09:30:35.234Z,4.30
2018-06-16T09:31:41.992Z,6.00
2018-06-16T09:32:48.898Z,8.50
2018-06-16T09:33:55.790Z,5.80
2018-06-16T09:35:02.497Z,4.50
2018-06-16T09:36:09.285Z,4.20
2018-06-16T09:37:16.202Z,6.40
2018-06-16T09:38:23.070Z,5.40
2018-06-16T09:39:29.791Z,4.50
2018-06-16T09:40:36.635Z,4.50
2018-06-16T09:41:43.656Z,4.70
2018-06-16T09:42:50.625Z,4.10
2018-06-16T09:43:57.589Z,4.10
2018-06-16T09:45:04.334Z,3.90
2018-06-16T09:46:11.180Z,6.90
2018-06-16T09:47:18.103Z,4.30
2018-06-16T09:48:25.032Z,4.40
2018-06-16T09:49:31.811Z,4.50
2018-06-16T09:50:38.838Z,4.00
2018-06-16T09:51:45.807Z,4.50
2018-06-16T09:52:52.623Z,4.20
2018-06-16T09:53:59.574Z,3.90
2018-06-16T09:55:06.500Z,3.50
2018-06-16T09:56:13.855Z,4.10
2018-06-16T09:57:20.306Z,3.50
2018-06-16T09:58:26.835Z,4.70
2018-06-16T09:59:33.786Z,4.00
2018-06-16T10:00:40.700Z,4.10
2018-06-16T10:01:47.675Z,3.80
2018-06-16T10:02:54.549Z,4.90
2018-06-16T10:04:01.570Z,3.80
2018-06-16T10:05:08.479Z,4.40
2018-06-16T10:06:15.438Z,4.10
2018-06-16T10:07:22.275Z,3.80
2018-06-16T10:08:29.499Z,4.30
2018-06-16T10:09:36.826Z,4.50
2018-06-16T10:10:43.555Z,3.80
2018-06-16T10:11:51.449Z,4.20
2018-06-16T10:12:56.774Z,5.70
2018-06-16T10:14:04.188Z,3.80
2018-06-16T10:15:10.623Z,4.30
2018-06-16T10:16:17.369Z,3.90
2018-06-16T10:17:24.346Z,3.80
2018-06-16T10:18:31.458Z,4.00
2018-06-16T10:19:38.254Z,4.20
2018-06-16T10:20:44.955Z,6.80
2018-06-16T10:21:52.051Z,4.00
2018-06-16T10:22:59.528Z,4.30
2018-06-16T10:24:06.393Z,4.20
2018-06-16T10:25:12.503Z,3.90
2018-06-16T10:26:19.342Z,5.10
2018-06-16T10:27:26.242Z,4.50
2018-06-16T10:28:33.287Z,4.30
2018-06-16T10:29:39.812Z,4.50
2018-06-16T10:30:46.801Z,4.00
2018-06-16T10:31:53.605Z,4.20
2018-06-16T10:33:00.384Z,4.40
2018-06-16T10:34:07.390Z,4.10
2018-06-16T10:35:14.251Z,4.10
2018-06-16T10:36:21.146Z,4.20
2018-06-16T10:37:27.867Z,4.00
2018-06-16T10:38:34.688Z,4.30
2018-06-16T10:39:41.517Z,4.80
2018-06-16T10:40:48.666Z,4.60
2018-06-16T10:41:55.583Z,4.30
2018-06-16T10:43:02.500Z,4.60
2018-06-16T10:44:09.242Z,5.10
2018-06-16T10:45:16.139Z,4.70
2018-06-16T10:46:22.853Z,3.70
2018-06-16T10:47:29.669Z,4.10
2018-06-16T10:48:36.405Z,3.70
2018-06-16T10:49:43.150Z,4.20
2018-06-16T10:50:49.866Z,4.20
2018-06-16T10:51:56.790Z,4.70
2018-06-16T10:53:03.555Z,4.20
2018-06-16T10:54:10.276Z,4.00
2018-06-16T10:55:17.185Z,3.90
2018-06-16T10:56:23.998Z,4.40
2018-06-16T10:57:30.719Z,4.50
2018-06-16T10:58:37.445Z,4.70
2018-06-16T10:59:44.389Z,4.20
2018-06-16T11:00:51.198Z,4.90
2018-06-16T11:01:57.970Z,5.40
2018-06-16T11:03:04.697Z,4.00
2018-06-16T11:04:11.469Z,4.10
2018-06-16T11:05:18.388Z,4.00
2018-06-16T11:06:25.126Z,4.00
2018-06-16T11:07:31.894Z,4.10
2018-06-16T11:08:38.624Z,3.90
2018-06-16T11:09:45.400Z,3.80
2018-06-16T11:10:52.167Z,4.90
2018-06-16T11:11:58.869Z,4.80
2018-06-16T11:13:05.622Z,4.10
2018-06-16T11:14:12.354Z,4.20
2018-06-16T11:15:19.167Z,4.50
2018-06-16T11:16:26.261Z,4.30
2018-06-16T11:17:32.961Z,4.00
2018-06-16T11:18:39.859Z,4.60
2018-06-16T11:19:46.787Z,4.30
2018-06-16T11:20:53.702Z,4.50
2018-06-16T11:22:00.637Z,4.00
2018-06-16T11:23:07.600Z,4.00
2018-06-16T11:24:14.495Z,4.30
2018-06-16T11:25:21.269Z,4.70
2018-06-16T11:26:28.146Z,4.30
2018-06-16T11:27:35.102Z,4.40
2018-06-16T11:28:41.985Z,4.70
2018-06-16T11:29:48.730Z,4.60
2018-06-16T11:30:55.548Z,5.50
2018-06-16T11:32:02.364Z,4.10
2018-06-16T11:33:09.491Z,4.40
2018-06-16T11:34:16.405Z,4.30
2018-06-16T11:35:23.358Z,4.50
2018-06-16T11:36:30.362Z,5.10
2018-06-16T11:37:37.282Z,5.50
2018-06-16T11:38:44.022Z,6.00
2018-06-16T11:39:51.043Z,4.70
2018-06-16T11:40:58.007Z,4.40
2018-06-16T11:42:04.749Z,4.60
2018-06-16T11:43:11.462Z,4.40
2018-06-16T11:44:18.227Z,5.00
2018-06-16T11:45:25.201Z,4.50
2018-06-16T11:46:31.954Z,5.00
2018-06-16T11:47:38.898Z,4.40
2018-06-16T11:48:45.975Z,4.70
2018-06-16T11:49:52.938Z,5.30
2018-06-16T11:51:00.040Z,4.80
2018-06-16T11:52:06.336Z,5.30
2018-06-16T11:53:13.061Z,4.50
2018-06-16T11:54:19.769Z,4.40
2018-06-16T11:55:26.571Z,4.90
2018-06-16T11:56:33.451Z,5.90
2018-06-16T11:57:40.331Z,4.70
2018-06-16T11:58:47.270Z,4.60
2018-06-16T11:59:54.214Z,4.10
2018-06-16T12:01:01.113Z,4.60
2018-06-16T12:02:08.022Z,5.00
2018-06-16T12:03:14.858Z,5.50
2018-06-16T12:04:21.599Z,5.00
2018-06-16T12:05:28.389Z,4.50
2018-06-16T12:06:35.112Z,5.30
2018-06-16T12:07:41.910Z,4.90
2018-06-16T12:08:48.634Z,4.90
2018-06-16T12:09:55.413Z,4.60
2018-06-16T12:11:02.152Z,5.10
2018-06-16T12:12:09.198Z,5.20
2018-06-16T12:13:15.938Z,5.10
2018-06-16T12:14:22.643Z,5.10
2018-06-16T12:15:29.585Z,5.10
2018-06-16T12:16:36.451Z,4.30
2018-06-16T12:17:43.632Z,4.00
2018-06-16T12:18:50.652Z,5.00
2018-06-16T12:19:57.349Z,4.40
2018-06-16T12:21:04.428Z,5.60
2018-06-16T12:22:11.409Z,4.80
2018-06-16T12:23:18.158Z,4.80
2018-06-16T12:24:25.142Z,4.90
2018-06-16T12:25:32.122Z,5.30
2018-06-16T12:26:38.829Z,4.60
2018-06-16T12:27:45.544Z,5.20
2018-06-16T12:28:52.629Z,5.20
2018-06-16T12:29:59.383Z,6.70
2018-06-16T12:31:06.114Z,5.50
2018-06-16T12:32:12.809Z,4.30
2018-06-16T12:33:19.503Z,5.00
2018-06-16T12:34:26.235Z,4.90
2018-06-16T12:35:32.994Z,4.50
2018-06-16T12:36:39.891Z,4.70
2018-06-16T12:37:46.802Z,5.00
2018-06-16T12:38:53.733Z,5.00
2018-06-16T12:40:00.398Z,5.30
2018-06-16T12:41:07.408Z,4.80
2018-06-16T12:42:14.266Z,5.10
2018-06-16T12:43:21.095Z,5.10
2018-06-16T12:44:27.961Z,5.20
2018-06-16T12:45:34.710Z,4.90
2018-06-16T12:46:41.446Z,5.10
2018-06-16T12:47:48.242Z,5.30
2018-06-16T12:48:54.965Z,4.70
2018-06-16T12:50:01.823Z,5.20
2018-06-16T12:51:08.985Z,4.80
2018-06-16T12:52:15.232Z,5.00
2018-06-16T12:53:22.070Z,4.60
2018-06-16T12:54:28.804Z,4.60
2018-06-16T12:55:35.654Z,4.70
2018-06-16T12:56:42.613Z,5.10
2018-06-16T12:57:49.619Z,6.30
2018-06-16T12:58:56.507Z,5.80
2018-06-16T13:00:03.403Z,6.20
2018-06-16T13:01:10.350Z,6.10
2018-06-16T13:02:17.303Z,4.80
2018-06-16T13:03:24.089Z,5.80
2018-06-16T13:04:30.911Z,5.50
2018-06-16T13:05:37.771Z,5.10
2018-06-16T13:06:44.517Z,5.60
2018-06-16T13:07:51.289Z,4.90
2018-06-16T13:08:58.418Z,4.70
2018-06-16T13:10:05.316Z,6.90
2018-06-16T13:11:12.302Z,5.60
2018-06-16T13:12:19.141Z,4.50
2018-06-16T13:13:26.164Z,4.80
2018-06-16T13:14:32.911Z,4.60
2018-06-16T13:15:40.078Z,5.00
2018-06-16T13:16:46.431Z,4.50
2018-06-16T13:17:53.157Z,4.80
2018-06-16T13:19:00.027Z,4.70
2018-06-16T13:20:07.250Z,4.80
2018-06-16T13:21:14.148Z,4.90
2018-06-16T13:22:20.894Z,4.40
2018-06-16T13:23:27.887Z,4.40
2018-06-16T13:24:34.676Z,4.50
2018-06-16T13:25:41.506Z,4.20
2018-06-16T13:26:48.270Z,4.30
2018-06-16T13:27:55.205Z,4.50
2018-06-16T13:29:01.992Z,4.20
2018-06-16T13:30:08.923Z,4.50
2018-06-16T13:31:15.879Z,4.70
2018-06-16T13:32:22.871Z,4.00
2018-06-16T13:33:29.605Z,4.80
2018-06-16T13:34:36.762Z,4.10
2018-06-16T13:35:43.626Z,4.90
2018-06-16T13:36:50.420Z,4.30
2018-06-16T13:37:57.290Z,4.30
2018-06-16T13:39:04.107Z,4.80
2018-06-16T13:40:10.886Z,4.40
2018-06-16T13:41:17.660Z,4.20
2018-06-16T13:42:24.578Z,4.60
2018-06-16T13:43:31.474Z,4.30
2018-06-16T13:44:38.374Z,4.20
2018-06-16T13:45:45.478Z,4.30
2018-06-16T13:46:54.236Z,4.40
2018-06-16T13:47:59.075Z,4.20
2018-06-16T13:49:05.782Z,4.30
2018-06-16T13:50:13.015Z,5.10
2018-06-16T13:51:19.829Z,4.50
2018-06-16T13:52:26.722Z,4.70
2018-06-16T13:53:33.585Z,4.20
2018-06-16T13:54:40.301Z,5.00
2018-06-16T13:55:47.037Z,4.70
2018-06-16T13:56:53.828Z,5.60
2018-06-16T13:58:00.578Z,4.60
2018-06-16T13:59:07.414Z,4.60
2018-06-16T14:00:14.147Z,4.70
2018-06-16T14:01:20.989Z,4.40
2018-06-16T14:02:27.806Z,5.10
2018-06-16T14:03:34.467Z,4.50
2018-06-16T14:04:41.199Z,4.40
2018-06-16T14:05:47.892Z,4.80
2018-06-16T14:06:54.791Z,4.80
2018-06-16T14:08:01.666Z,6.10
2018-06-16T14:09:08.394Z,4.00
2018-06-16T14:10:15.233Z,4.10
2018-06-16T14:11:21.983Z,4.40
2018-06-16T14:12:28.978Z,4.10
2018-06-16T14:13:35.717Z,4.40
2018-06-16T14:14:42.549Z,4.30
2018-06-16T14:15:49.386Z,4.60
2018-06-16T14:16:56.382Z,5.00
2018-06-16T14:18:03.288Z,4.50
2018-06-16T14:19:10.226Z,4.50
2018-06-16T14:20:16.993Z,3.90
2018-06-16T14:21:23.838Z,4.10
2018-06-16T14:22:30.502Z,4.50
2018-06-16T14:23:37.226Z,4.00
2018-06-16T14:24:44.106Z,4.30
2018-06-16T14:25:51.005Z,4.70
2018-06-16T14:26:57.767Z,4.40
2018-06-16T14:28:04.574Z,4.50
2018-06-16T14:29:11.326Z,4.90
2018-06-16T14:30:18.150Z,3.90
2018-06-16T14:31:25.099Z,4.50
2018-06-16T14:32:31.835Z,4.20
2018-06-16T14:33:38.546Z,4.60
2018-06-16T14:34:45.460Z,4.50
2018-06-16T14:35:52.463Z,4.50
2018-06-16T14:36:59.379Z,4.40
2018-06-16T14:38:06.286Z,4.10
2018-06-16T14:39:12.975Z,4.90
2018-06-16T14:40:19.817Z,4.90
2018-06-16T14:41:26.763Z,4.30
2018-06-16T14:42:33.702Z,4.10
2018-06-16T14:43:40.547Z,4.90
2018-06-16T14:44:47.282Z,4.70
2018-06-16T14:45:54.205Z,4.40
2018-06-16T14:47:00.994Z,4.90
2018-06-16T14:48:07.815Z,5.00
2018-06-16T14:49:14.722Z,4.70